Flight Track Log - Related Links

Times and Time Zones

All times are in EDT time to prevent confusion due to time zone crossing. See the C-FTOH flight status page for this flight to view local times or setup timezone preferences in your user account.

Time Position Orientation Groundspeed Altitude Reporting Facility
EDT Latitude Longitude Course Direction KTS MPH feet Rate Location/Type
Tue 02:19:15 PM 23.1981 -81.3628 11° North 449 517 7,200  Level Miami Center
Tue 02:20:15 PM 23.2736 -81.3497 North 365 420 9,800 2,100 Climbing Miami Center
Tue 02:21:15 PM 23.3575 -81.3344 North 326 375 11,400 1,950 Climbing Miami Center
Tue 02:22:15 PM 23.4564 -81.3153 10° North 326 375 13,700 2,300 Climbing Miami Center
Tue 02:23:15 PM 23.5547 -81.3006 North 339 390 16,000 2,200 Climbing Miami Center
Tue 02:24:00 PM 24.5724 -81.1214 11° North  Level Estimated
Tue 02:24:15 PM 23.6619 -81.2794 10° North 364 419 18,100  Level Miami Center
Tue 02:29:32 PM 24.2520 -81.1820 10° North 407 468 25,700 1,425 Climbing FlightAware ADS-B
Tue 02:30:17 PM 24.3390 -81.1740 North 422 486 26,700 1,341 Climbing FlightAware ADS-B
Tue 02:30:57 PM 24.4150 -81.1660 North 418 481 27,600 1,350 Climbing FlightAware ADS-B
Tue 02:31:37 PM 24.4970 -81.1580 North 422 486 28,500 1,412 Climbing FlightAware ADS-B
Tue 02:32:22 PM 24.5850 -81.1500 North 422 486 29,600 1,600 Climbing FlightAware ADS-B
Tue 02:33:07 PM 24.6760 -81.1410 North 422 486 30,900 1,624 Climbing FlightAware ADS-B
Tue 02:33:47 PM 24.7550 -81.1340 North 418 481 31,900 1,350 Climbing FlightAware ADS-B
Tue 02:34:27 PM 24.8310 -81.1260 North 416 479 32,700 1,059 Climbing FlightAware ADS-B
Tue 02:35:12 PM 24.9140 -81.1180 North 417 480 33,400 988 Climbing FlightAware ADS-B
Tue 02:35:52 PM 24.9950 -81.1100 North 416 479 34,100 1,125 Climbing FlightAware ADS-B
Tue 02:36:32 PM 25.0710 -81.1030 North 404 465 34,900 635 Climbing FlightAware ADS-B
Tue 02:37:17 PM 25.1570 -81.0940 North 403 464 35,000 71 Climbing FlightAware ADS-B
Tue 02:37:57 PM 25.2330 -81.0870 North 403 464 35,000  Level FlightAware ADS-B
Tue 02:38:42 PM 25.3190 -81.0790 North 401 461 35,000  Level FlightAware ADS-B
Tue 02:39:22 PM 25.3940 -81.0720 North 401 461 35,000  Level FlightAware ADS-B
Tue 02:40:02 PM 25.4680 -81.0650 North 400 460 35,000  Level FlightAware ADS-B
Tue 02:40:42 PM 25.5450 -81.0590 North 400 460 35,000  Level FlightAware ADS-B
Tue 02:41:27 PM 25.6300 -81.0520 North 399 459 35,000  Level FlightAware ADS-B
Tue 02:42:07 PM 25.7060 -81.0470 North 400 460 35,000  Level FlightAware ADS-B
Tue 02:42:52 PM 25.7900 -81.0410 North 401 461 35,000  Level FlightAware ADS-B
Tue 02:43:32 PM 25.8670 -81.0360 North 402 463 35,000  Level FlightAware ADS-B
Tue 02:44:17 PM 25.9500 -81.0310 North 405 466 35,000  Level FlightAware ADS-B
Tue 02:44:57 PM 26.0270 -81.0260 North 415 478 35,000  Level FlightAware ADS-B
Tue 02:45:42 PM 26.1160 -81.0210 North 417 480 35,000  Level FlightAware ADS-B
Tue 02:46:22 PM 26.1930 -81.0160 North 419 482 35,000  Level FlightAware ADS-B
Tue 02:47:02 PM 26.2710 -81.0110 North 420 483 35,000  Level FlightAware ADS-B
Tue 02:47:47 PM 26.3590 -81.0060 North 421 484 35,000  Level FlightAware ADS-B
Tue 02:48:27 PM 26.4350 -81.0030 North 418 481 35,000  Level FlightAware ADS-B
Tue 02:49:07 PM 26.5140 -81.0000 North 415 478 35,000  Level FlightAware ADS-B
Tue 02:49:52 PM 26.5990 -80.9960 North 406 467 35,000  Level FlightAware ADS-B
Tue 02:50:32 PM 26.6760 -80.9940 North 406 467 35,000  Level FlightAware ADS-B
Tue 02:51:27 PM 26.7720 -80.9910 North 35,000  Level FlightAware ADS-B
Tue 02:52:12 PM 26.8690 -80.9890 North 406 467 35,000  Level FlightAware ADS-B
Tue 02:52:52 PM 26.9440 -80.9870 North 406 467 35,000  Level FlightAware ADS-B
Tue 02:53:32 PM 27.0150 -80.9860 North 415 478 35,000  Level FlightAware ADS-B
Tue 02:54:17 PM 27.1050 -80.9840 North 416 479 35,000  Level FlightAware ADS-B
Tue 02:54:57 PM 27.1860 -80.9830 North 417 480 35,000  Level FlightAware ADS-B
Tue 02:55:42 PM 27.2740 -80.9830 360° North 417 480 35,000  Level FlightAware ADS-B
Tue 02:56:22 PM 27.3560 -80.9840 359° North 417 480 35,000  Level FlightAware ADS-B
Tue 02:57:02 PM 27.4320 -80.9850 359° North 417 480 35,000  Level FlightAware ADS-B
Tue 02:57:47 PM 27.5170 -80.9870 359° North 418 481 35,000  Level FlightAware ADS-B
Tue 02:58:22 PM 27.5790 -80.9890 358° North 418 481 35,000  Level FlightAware ADS-B
Tue 02:59:02 PM 27.6570 -80.9900 359° North 420 483 35,000  Level FlightAware ADS-B
Tue 03:00:07 PM 27.7790 -81.0240 346° North 413 475 35,000  Level FlightAware ADS-B
Tue 03:00:57 PM 27.8670 -81.0600 340° North 413 475 35,000  Level FlightAware ADS-B
Tue 03:01:42 PM 27.9390 -81.1170 325° Northwest 407 468 35,000  Level FlightAware ADS-B
Tue 03:02:27 PM 28.0040 -81.1730 323° Northwest 407 468 35,000  Level FlightAware ADS-B
Tue 03:03:07 PM 28.0740 -81.2140 333° Northwest 415 478 35,000  Level FlightAware ADS-B
Tue 03:03:52 PM 28.1560 -81.2350 347° North 416 479 35,000  Level FlightAware ADS-B
Tue 03:04:32 PM 28.2340 -81.2550 347° North 415 478 35,000  Level FlightAware ADS-B
Tue 03:05:17 PM 28.3190 -81.2770 347° North 415 478 35,000  Level FlightAware ADS-B
Tue 03:05:57 PM 28.3890 -81.2950 347° North 415 478 35,000  Level FlightAware ADS-B
Tue 03:06:37 PM 28.4640 -81.3140 347° North 415 478 35,000  Level FlightAware ADS-B
Tue 03:07:22 PM 28.5500 -81.3350 348° North 419 482 35,000  Level FlightAware ADS-B
Tue 03:08:02 PM 28.6310 -81.3440 354° North 420 483 35,000  Level FlightAware ADS-B
Tue 03:08:47 PM 28.7120 -81.3510 356° North 420 483 35,000  Level FlightAware ADS-B
Tue 03:09:22 PM 28.7810 -81.3580 355° North 420 483 35,000  Level FlightAware ADS-B
Tue 03:10:22 PM 28.9000 -81.3690 355° North 418 481 35,000  Level FlightAware ADS-B
Tue 03:10:57 PM 28.9630 -81.3750 355° North 417 480 35,000  Level FlightAware ADS-B
Tue 03:11:47 PM 29.0590 -81.3850 355° North 416 479 35,000  Level FlightAware ADS-B
Tue 03:12:22 PM 29.1330 -81.3920 355° North 407 468 35,000  Level FlightAware ADS-B
Tue 03:13:12 PM 29.2210 -81.4000 355° North 405 466 35,000  Level FlightAware ADS-B
Tue 03:13:47 PM 29.2950 -81.4080 355° North 405 466 35,000  Level FlightAware ADS-B
Tue 03:14:32 PM 29.3780 -81.4160 355° North 404 465 35,000  Level FlightAware ADS-B
Tue 03:15:07 PM 29.4470 -81.4220 356° North 404 465 35,000  Level FlightAware ADS-B
Tue 03:15:52 PM 29.5340 -81.4310 355° North 407 468 35,000  Level FlightAware ADS-B
Tue 03:16:37 PM 29.6090 -81.4400 354° North 407 468 35,000  Level FlightAware ADS-B
Tue 03:17:17 PM 29.6730 -81.4480 354° North 407 468 35,000  Level FlightAware ADS-B
Tue 03:17:57 PM 29.7360 -81.4550 354° North 407 468 35,000  Level FlightAware ADS-B
Tue 03:18:47 PM 29.8160 -81.4650 354° North 407 468 35,000  Level FlightAware ADS-B
Tue 03:19:27 PM 29.8800 -81.4730 354° North 407 468 35,000  Level FlightAware ADS-B
Tue 03:20:07 PM 29.9430 -81.4800 355° North 407 468 35,000  Level FlightAware ADS-B
Tue 03:20:57 PM 30.0230 -81.4900 354° North 407 468 35,000  Level FlightAware ADS-B
Tue 03:21:27 PM 30.0710 -81.4960 354° North 407 468 35,000  Level FlightAware ADS-B
Tue 03:22:17 PM 30.1500 -81.5050 354° North 407 468 35,000  Level FlightAware ADS-B
Tue 03:22:57 PM 30.2140 -81.5130 354° North 407 468 35,000  Level FlightAware ADS-B
Tue 03:23:47 PM 30.2930 -81.5230 354° North 407 468 35,000  Level FlightAware ADS-B
Tue 03:24:27 PM 30.3570 -81.5310 354° North 407 468 35,000  Level FlightAware ADS-B
Tue 03:24:57 PM 30.4050 -81.5360 355° North 407 468 35,000  Level FlightAware ADS-B
Tue 03:25:45 PM 30.6931 -81.4817 355° North 427 491 35,000  Level Jacksonville Center
Tue 03:26:44 PM 30.8097 -81.4728 North 427 491 35,000  Level Jacksonville Center
Tue 03:27:44 PM 30.9289 -81.4661 North 421 484 35,000  Level Jacksonville Center
Tue 03:28:44 PM 31.0456 -81.4547 North 421 484 35,000  Level Jacksonville Center
Tue 03:29:45 PM 31.1644 -81.4481 North 421 484 35,000  Level Jacksonville Center
Tue 03:30:45 PM 31.2833 -81.4317 North 421 484 35,000  Level Jacksonville Center
Tue 03:36:07 PM 31.8730 -81.1450 North 441 507 35,000  Level FlightAware ADS-B
Tue 03:36:47 PM 31.9380 -81.0890 36° Northeast 440 506 35,000  Level FlightAware ADS-B
Tue 03:37:27 PM 31.9980 -81.0380 36° Northeast 437 503 35,000  Level FlightAware ADS-B
Tue 03:38:07 PM 32.0570 -80.9870 36° Northeast 435 501 35,000  Level FlightAware ADS-B
Tue 03:39:22 PM 32.1720 -80.8880 36° Northeast 434 499 35,000  Level FlightAware ADS-B
Tue 03:40:02 PM 32.2270 -80.8400 36° Northeast 434 499 35,000  Level FlightAware ADS-B
Tue 03:40:42 PM 32.2820 -80.7930 36° Northeast 434 499 35,000  Level FlightAware ADS-B
Tue 03:41:17 PM 32.3730 -80.7130 37° Northeast 431 496 35,000  Level FlightAware ADS-B
Tue 03:42:07 PM 32.4530 -80.6440 36° Northeast 431 496 35,000  Level FlightAware ADS-B
Tue 03:42:57 PM 32.5340 -80.5740 36° Northeast 431 496 35,000  Level FlightAware ADS-B
Tue 03:43:42 PM 32.6030 -80.5130 37° Northeast 436 502 35,000  Level FlightAware ADS-B
Tue 03:44:27 PM 32.6750 -80.4510 36° Northeast 434 499 35,000  Level FlightAware ADS-B
Tue 03:45:12 PM 32.7530 -80.3820 37° Northeast 433 498 35,000  Level FlightAware ADS-B
Tue 03:46:32 PM 32.8280 -80.3170 36° Northeast 432 497 35,000  Level FlightAware ADS-B
Tue 03:47:17 PM 32.9510 -80.2080 37° Northeast 428 493 35,000  Level FlightAware ADS-B
Tue 03:47:57 PM 33.0140 -80.1510 37° Northeast 425 489 35,000  Level FlightAware ADS-B
Tue 03:48:42 PM 33.0860 -80.0880 36° Northeast 424 488 35,000  Level FlightAware ADS-B
Tue 03:49:22 PM 33.1450 -80.0360 36° Northeast 425 489 35,000  Level FlightAware ADS-B
Tue 03:50:02 PM 33.2100 -79.9790 36° Northeast 424 488 35,000  Level FlightAware ADS-B
Tue 03:50:47 PM 33.2750 -79.9220 36° Northeast 424 488 35,000  Level FlightAware ADS-B
Tue 03:51:27 PM 33.3450 -79.8590 37° Northeast 424 488 35,000  Level FlightAware ADS-B
Tue 03:52:12 PM 33.4160 -79.7950 37° Northeast 425 489 35,000  Level FlightAware ADS-B
Tue 03:52:52 PM 33.4780 -79.7400 36° Northeast 425 489 35,000  Level FlightAware ADS-B
Tue 03:53:27 PM 33.5270 -79.6960 37° Northeast 424 488 35,000  Level FlightAware ADS-B
Tue 03:54:07 PM 33.5940 -79.6350 37° Northeast 424 488 35,000  Level FlightAware ADS-B
Tue 03:54:57 PM 33.6740 -79.5640 36° Northeast 422 486 35,000  Level FlightAware ADS-B
Tue 03:55:42 PM 33.7420 -79.5020 37° Northeast 421 484 35,000  Level FlightAware ADS-B
Tue 03:56:22 PM 33.8020 -79.4480 37° Northeast 420 483 35,000  Level FlightAware ADS-B
Tue 03:57:02 PM 33.8620 -79.3940 37° Northeast 419 482 35,000  Level FlightAware ADS-B
Tue 03:57:42 PM 33.9230 -79.3390 37° Northeast 417 480 35,000  Level FlightAware ADS-B
Tue 03:58:22 PM 33.9900 -79.2780 37° Northeast 414 476 35,000  Level FlightAware ADS-B
Tue 03:59:02 PM 34.0440 -79.2290 37° Northeast 414 476 35,000  Level FlightAware ADS-B
Tue 03:59:52 PM 34.1180 -79.1610 37° Northeast 410 472 35,000  Level FlightAware ADS-B
Tue 04:00:27 PM 34.1680 -79.1160 37° Northeast 410 472 35,000  Level FlightAware ADS-B
Tue 04:01:17 PM 34.2330 -79.0570 37° Northeast 410 472 35,000  Level FlightAware ADS-B
Tue 04:01:57 PM 34.2840 -79.0100 37° Northeast 410 472 35,000  Level FlightAware ADS-B
Tue 04:02:37 PM 34.3360 -78.9630 37° Northeast 410 472 35,000  Level FlightAware ADS-B
Tue 04:03:17 PM 34.3870 -78.9160 37° Northeast 410 472 35,000  Level FlightAware ADS-B
Tue 04:03:57 PM 34.4390 -78.8690 37° Northeast 410 472 35,000  Level FlightAware ADS-B
Tue 04:04:47 PM 34.5030 -78.8100 37° Northeast 410 472 35,000  Level FlightAware ADS-B
Tue 04:05:27 PM 34.5550 -78.7630 37° Northeast 410 472 35,000  Level FlightAware ADS-B
Tue 04:06:07 PM 34.6060 -78.7160 37° Northeast 410 472 35,000  Level FlightAware ADS-B
Tue 04:06:47 PM 34.6580 -78.6690 37° Northeast 410 472 35,000  Level FlightAware ADS-B
Tue 04:07:27 PM 34.7090 -78.6220 37° Northeast 410 472 35,000  Level FlightAware ADS-B
Tue 04:08:17 PM 34.7730 -78.5630 37° Northeast 410 472 35,000  Level FlightAware ADS-B
Tue 04:08:57 PM 34.8250 -78.5150 37° Northeast 410 472 35,000  Level FlightAware ADS-B
Tue 04:09:37 PM 34.8760 -78.4680 37° Northeast 410 472 35,000  Level FlightAware ADS-B
Tue 04:15:17 PM 35.5470 -78.0420 27° Northeast 383 441 35,000  Level FlightAware ADS-B
Tue 04:15:57 PM 35.6130 -77.9900 33° Northeast 386 444 35,000  Level FlightAware ADS-B
Tue 04:16:32 PM 35.6690 -77.9470 32° Northeast 387 445 35,000  Level FlightAware ADS-B
Tue 04:17:17 PM 35.7370 -77.8930 33° Northeast 388 447 35,000  Level FlightAware ADS-B
Tue 04:17:57 PM 35.7990 -77.8440 33° Northeast 389 448 35,000  Level FlightAware ADS-B
Tue 04:18:37 PM 35.8600 -77.7960 33° Northeast 389 448 35,000  Level FlightAware ADS-B
Tue 04:19:22 PM 35.9240 -77.7450 33° Northeast 398 458 35,000  Level FlightAware ADS-B
Tue 04:20:02 PM 35.9930 -77.6890 33° Northeast 403 464 35,000  Level FlightAware ADS-B
Tue 04:20:42 PM 36.0400 -77.6460 36° Northeast 403 464 35,000  Level FlightAware ADS-B
Tue 04:21:22 PM 36.0910 -77.6000 36° Northeast 403 464 35,000  Level FlightAware ADS-B
Tue 04:22:12 PM 36.1550 -77.5430 36° Northeast 403 464 35,000  Level FlightAware ADS-B
Tue 04:23:22 PM 36.2870 -77.4150 38° Northeast 404 465 35,000  Level FlightAware ADS-B
Tue 04:23:57 PM 36.3370 -77.3680 37° Northeast 404 465 35,000  Level FlightAware ADS-B
Tue 04:24:47 PM 36.4000 -77.3090 37° Northeast 404 465 35,000  Level FlightAware ADS-B
Tue 04:25:17 PM 36.4380 -77.2730 37° Northeast 404 465 35,000  Level FlightAware ADS-B
Tue 04:26:07 PM 36.5020 -77.2140 37° Northeast 404 465 35,000 120 Level FlightAware ADS-B
Tue 04:26:42 PM 36.5810 -77.1390 37° Northeast 35,000 180 Level FlightAware ADS-B
Tue 04:27:47 PM 36.6720 -77.0530 37° Northeast 406 467 35,300 171 Climbing FlightAware ADS-B
Tue 04:28:27 PM 36.7230 -77.0050 37° Northeast 406 467 35,300  Level FlightAware ADS-B
Tue 04:29:07 PM 36.7740 -76.9570 37° Northeast 406 467 35,300 1,020 Level FlightAware ADS-B
Tue 04:30:07 PM 36.9100 -76.8370 35° Northeast 436 502 37,000 1,020 Climbing FlightAware ADS-B
Tue 04:30:47 PM 36.9740 -76.7790 36° Northeast 438 504 37,000  Level FlightAware ADS-B
Tue 04:31:32 PM 37.0390 -76.7220 35° Northeast 438 504 37,000  Level FlightAware ADS-B
Tue 04:32:12 PM 37.1180 -76.6480 37° Northeast 441 507 37,000  Level FlightAware ADS-B
Tue 04:32:57 PM 37.1820 -76.5890 36° Northeast 441 507 37,000  Level FlightAware ADS-B
Tue 04:34:04 PM 37.3122 -76.4713 36° Northeast 456 525 37,000  Level FlightAware ADS-B
Tue 04:34:40 PM 37.3733 -76.4150 36° Northeast 457 526 37,000  Level FlightAware ADS-B
Tue 04:35:10 PM 37.4252 -76.3676 36° Northeast 458 527 37,000  Level FlightAware ADS-B
Tue 04:35:44 PM 37.4833 -76.3146 36° Northeast 458 527 37,000  Level FlightAware ADS-B
Tue 04:36:17 PM 37.5397 -76.2627 36° Northeast 455 524 37,000  Level FlightAware ADS-B
Tue 04:36:48 PM 37.5920 -76.2145 36° Northeast 455 524 37,000  Level FlightAware ADS-B
Tue 04:37:37 PM 37.6620 -76.1500 36° Northeast 447 514 37,000  Level FlightAware ADS-B
Tue 04:38:17 PM 37.7320 -76.0850 36° Northeast 447 514 37,000  Level FlightAware ADS-B
Tue 04:39:07 PM 37.8150 -76.0080 36° Northeast 446 513 37,000  Level FlightAware ADS-B
Tue 04:39:33 PM 37.8700 -75.9567 36° Northeast 451 519 37,000  Level FlightAware ADS-B
Tue 04:40:19 PM 37.9462 -75.8856 36° Northeast 448 516 37,000  Level FlightAware ADS-B
Tue 04:41:17 PM 38.0340 -75.8040 36° Northeast 446 513 37,000  Level FlightAware ADS-B
Tue 04:41:35 PM 38.0737 -75.7663 37° Northeast 445 512 37,000  Level FlightAware ADS-B
Tue 04:42:09 PM 38.1285 -75.7148 36° Northeast 443 510 37,000  Level FlightAware ADS-B
Tue 04:42:39 PM 38.1786 -75.6677 36° Northeast 443 510 37,000  Level FlightAware ADS-B
Tue 04:43:22 PM 38.2390 -75.6110 36° Northeast 443 510 37,000  Level FlightAware ADS-B
Tue 04:43:46 PM 38.2894 -75.5632 37° Northeast 445 512 37,000  Level FlightAware ADS-B
Tue 04:44:16 PM 38.3413 -75.5190 34° Northeast 450 518 37,000  Level FlightAware ADS-B
Tue 04:44:29 PM 38.3644 -75.5047 26° Northeast 452 520 37,000  Level FlightAware ADS-B
Tue 04:44:48 PM 38.4023 -75.4872 20° North 453 521 37,000  Level FlightAware ADS-B
Tue 04:45:22 PM 38.4695 -75.4592 18° North 453 521 37,000  Level FlightAware ADS-B
Tue 04:46:04 PM 38.5534 -75.4243 18° North 453 521 37,000  Level FlightAware ADS-B
Tue 04:46:35 PM 38.6149 -75.3986 18° North 452 520 37,000  Level FlightAware ADS-B
Tue 04:47:19 PM 38.7024 -75.3622 18° North 451 519 37,000  Level FlightAware ADS-B
Tue 04:47:50 PM 38.7648 -75.3363 18° North 448 516 37,000  Level FlightAware ADS-B
Tue 04:48:33 PM 38.8490 -75.3011 18° North 448 516 37,000  Level FlightAware ADS-B
Tue 04:49:09 PM 38.9201 -75.2713 18° North 447 514 37,000  Level FlightAware ADS-B
Tue 04:49:53 PM 39.0060 -75.2353 18° North 448 516 37,000  Level FlightAware ADS-B
Tue 04:50:23 PM 39.0656 -75.2102 18° North 448 516 37,000  Level FlightAware ADS-B
Tue 04:50:53 PM 39.1251 -75.1851 18° North 452 520 37,000  Level FlightAware ADS-B
Tue 04:51:23 PM 39.1851 -75.1597 18° North 455 524 37,000  Level FlightAware ADS-B
Tue 04:51:53 PM 39.2455 -75.1342 18° North 457 526 37,000  Level FlightAware ADS-B
Tue 04:52:05 PM 39.2692 -75.1235 19° North 458 527 37,000  Level FlightAware ADS-B
Tue 04:52:25 PM 39.3066 -75.1003 26° Northeast 458 527 37,000  Level FlightAware ADS-B
Tue 04:52:57 PM 39.3621 -75.0506 35° Northeast 458 527 37,000  Level FlightAware ADS-B
Tue 04:53:28 PM 39.4143 -74.9995 37° Northeast 459 528 37,000  Level FlightAware ADS-B
Tue 04:53:59 PM 39.4672 -74.9475 37° Northeast 461 531 37,000  Level FlightAware ADS-B
Tue 04:54:29 PM 39.5185 -74.8967 37° Northeast 464 534 37,000  Level FlightAware ADS-B
Tue 04:55:00 PM 39.5710 -74.8447 37° Northeast 469 540 37,000  Level FlightAware ADS-B
Tue 04:55:30 PM 39.6227 -74.7934 37° Northeast 472 543 37,000  Level FlightAware ADS-B
Tue 04:56:05 PM 39.6834 -74.7331 37° Northeast 473 544 37,000  Level FlightAware ADS-B
Tue 04:56:39 PM 39.7430 -74.6737 37° Northeast 476 548 37,000  Level FlightAware ADS-B
Tue 04:57:12 PM 39.7997 -74.6171 37° Northeast 478 550 37,000  Level FlightAware ADS-B
Tue 04:57:46 PM 39.8606 -74.5561 38° Northeast 478 550 37,000  Level FlightAware ADS-B
Tue 04:58:19 PM 39.9169 -74.4995 38° Northeast 479 551 37,000  Level FlightAware ADS-B
Tue 04:58:49 PM 39.9712 -74.4450 38° Northeast 481 554 37,000  Level FlightAware ADS-B
Tue 04:59:20 PM 40.0261 -74.3899 38° Northeast 483 556 37,000  Level FlightAware ADS-B
Tue 04:59:58 PM 40.0928 -74.3227 38° Northeast 485 558 37,000  Level FlightAware ADS-B
Tue 05:00:39 PM 40.1649 -74.2499 38° Northeast 490 564 37,000  Level FlightAware ADS-B
Tue 05:01:09 PM 40.2192 -74.1950 38° Northeast 492 566 37,000  Level FlightAware ADS-B
Tue 05:01:41 PM 40.2766 -74.1369 38° Northeast 495 570 37,000  Level FlightAware ADS-B
Tue 05:02:13 PM 40.3349 -74.0773 38° Northeast 499 574 37,000  Level FlightAware ADS-B
Tue 05:02:44 PM 40.3925 -74.0182 38° Northeast 504 580 37,000  Level FlightAware ADS-B
Tue 05:03:15 PM 40.4491 -73.9603 38° Northeast 507 583 37,000  Level FlightAware ADS-B
Tue 05:03:48 PM 40.5097 -73.8984 38° Northeast 510 587 37,000  Level FlightAware ADS-B
Tue 05:04:22 PM 40.5741 -73.8323 38° Northeast 513 590 37,000  Level FlightAware ADS-B
Tue 05:04:40 PM 40.6098 -73.8003 34° Northeast 522 601 37,000  Level FlightAware ADS-B
Tue 05:04:51 PM 40.6341 -73.7864 23° Northeast 528 608 37,000  Level FlightAware ADS-B
Tue 05:05:14 PM 40.6893 -73.7741 10° North 531 611 37,000  Level FlightAware ADS-B
Tue 05:05:26 PM 40.7171 -73.7751 358° North 531 611 37,000  Level FlightAware ADS-B
Tue 05:05:58 PM 40.7971 -73.7789 358° North 534 615 37,000  Level FlightAware ADS-B
Tue 05:06:40 PM 40.8996 -73.7840 358° North 535 616 37,000  Level FlightAware ADS-B
Tue 05:07:10 PM 40.9744 -73.7877 358° North 534 615 37,000  Level FlightAware ADS-B
Tue 05:07:40 PM 41.0490 -73.7915 358° North 533 613 37,000  Level FlightAware ADS-B
Tue 05:08:18 PM 41.1423 -73.7963 358° North 533 613 37,000  Level FlightAware ADS-B
Tue 05:08:49 PM 41.2185 -73.8002 358° North 534 615 37,000  Level FlightAware ADS-B
Tue 05:09:26 PM 41.3102 -73.8047 358° North 534 615 37,000  Level FlightAware ADS-B
Tue 05:09:56 PM 41.3855 -73.8085 358° North 533 613 37,000  Level FlightAware ADS-B
Tue 05:10:27 PM 41.4570 -73.8120 358° North 532 612 37,000  Level FlightAware ADS-B
Tue 05:10:48 PM 41.5122 -73.8148 358° North 532 612 37,000  Level FlightAware ADS-B
Tue 05:11:38 PM 41.6365 -73.8207 358° North 534 615 37,000  Level FlightAware ADS-B
Tue 05:11:56 PM 41.6815 -73.8219 359° North 537 618 37,000  Level FlightAware ADS-B
Tue 05:12:37 PM 41.7770 -73.8200 North 538 619 37,000  Level FlightAware ADS-B
Tue 05:12:42 PM 41.7946 -73.8199 360° North 537 618 37,000  Level FlightAware ADS-B
Tue 05:13:17 PM 41.8780 -73.8180 North 539 620 37,000  Level FlightAware ADS-B
Tue 05:13:26 PM 41.9034 -73.8180 360° North 539 620 37,000  Level FlightAware ADS-B
Tue 05:13:57 PM 41.9770 -73.8170 North 538 619 37,000  Level FlightAware ADS-B
Tue 05:14:42 PM 42.0850 -73.8150 North 538 619 37,000  Level FlightAware ADS-B
Tue 05:14:57 PM 42.1303 -73.8145 360° North 538 619 37,000  Level FlightAware ADS-B
Tue 05:15:57 PM 42.2750 -73.8310 355° North 534 615 37,000  Level FlightAware ADS-B
Tue 05:16:47 PM 42.3980 -73.8460 355° North 532 612 37,000  Level FlightAware ADS-B
Tue 05:17:22 PM 42.4740 -73.8550 355° North 530 610 37,000  Level FlightAware ADS-B
Tue 05:18:12 PM 42.6040 -73.8710 355° North 529 609 37,000  Level FlightAware ADS-B
Tue 05:18:52 PM 42.7010 -73.8830 355° North 527 606 37,000  Level FlightAware ADS-B
Tue 05:19:32 PM 42.7970 -73.8950 355° North 525 604 37,000  Level FlightAware ADS-B
Tue 05:20:17 PM 42.9080 -73.9090 355° North 523 602 37,000  Level FlightAware ADS-B
Tue 05:20:57 PM 43.0030 -73.9210 355° North 520 598 37,000  Level FlightAware ADS-B
Tue 05:21:37 PM 43.0980 -73.9330 355° North 518 596 37,000  Level FlightAware ADS-B
Tue 05:22:22 PM 43.2090 -73.9460 355° North 515 593 37,000  Level FlightAware ADS-B
Tue 05:23:02 PM 43.2960 -73.9570 355° North 513 590 37,000  Level FlightAware ADS-B
Tue 05:23:47 PM 43.3570 -73.9650 355° North 512 589 37,000  Level FlightAware ADS-B
Tue 05:24:27 PM 43.4450 -73.9760 355° North 510 587 37,000  Level FlightAware ADS-B
Tue 05:25:07 PM 43.5470 -73.9890 355° North 507 583 37,000  Level FlightAware ADS-B
Tue 05:25:52 PM 43.6420 -74.0010 355° North 505 581 37,000  Level FlightAware ADS-B
Tue 05:26:32 PM 43.7340 -74.0130 355° North 503 579 37,000  Level FlightAware ADS-B
Tue 05:27:17 PM 43.8210 -74.0250 354° North 497 572 37,000 -160 Level FlightAware ADS-B
Tue 05:27:47 PM 43.8650 -74.0370 349° North 479 551 36,800 -2,400 Descending FlightAware ADS-B
Tue 05:28:37 PM 44.0430 -74.1420 337° Northwest 451 519 33,800 -2,779 Descending FlightAware ADS-B
Tue 05:29:22 PM 44.1300 -74.1970 336° Northwest 438 504 32,400 -1,835 Descending FlightAware ADS-B
Tue 05:30:02 PM 44.2030 -74.2440 335° Northwest 422 486 31,200 -1,800 Descending FlightAware ADS-B
Tue 05:30:42 PM 44.2710 -74.2880 335° Northwest 406 467 30,000 -1,694 Descending FlightAware ADS-B
Tue 05:31:27 PM 44.3440 -74.3350 335° Northwest 388 447 28,800 -1,553 Descending FlightAware ADS-B
Tue 05:32:07 PM 44.4090 -74.3770 335° Northwest 369 425 27,800 -1,271 Descending FlightAware ADS-B
Tue 05:32:52 PM 44.4770 -74.4210 335° Northwest 346 398 27,000 -1,129 Descending FlightAware ADS-B
Tue 05:33:32 PM 44.5340 -74.4580 335° Northwest 333 383 26,200 -1,350 Descending FlightAware ADS-B
Tue 05:34:12 PM 44.5880 -74.4930 335° Northwest 325 374 25,200 -1,553 Descending FlightAware ADS-B
Tue 05:34:57 PM 44.6490 -74.5330 335° Northwest 318 366 24,000 -1,553 Descending FlightAware ADS-B
Tue 05:35:37 PM 44.7020 -74.5680 335° Northwest 312 359 23,000 -1,500 Descending FlightAware ADS-B
Tue 05:36:17 PM 44.7530 -74.6010 335° Northwest 310 357 22,000 -1,400 Descending FlightAware ADS-B
Tue 05:37:07 PM 44.8160 -74.6420 335° Northwest 320 368 20,900 -1,380 Descending FlightAware ADS-B
Tue 05:37:57 PM 44.8820 -74.6900 333° Northwest 316 364 19,700 -1,477 Descending FlightAware ADS-B
Tue 05:38:12 PM 44.8950 -74.7160 305° West 308 354 19,300 -1,400 Descending FlightAware ADS-B
Tue 05:38:27 PM 44.8990 -74.7430 282° West 305 351 19,000 -1,309 Descending FlightAware ADS-B
Tue 05:39:07 PM 44.8910 -74.8250 262° West 303 349 18,100 -1,457 Descending FlightAware ADS-B
Tue 05:39:37 PM 44.8950 -74.8800 276° West 302 348 17,300 -1,569 Descending FlightAware ADS-B
Tue 05:40:12 PM 44.9250 -74.9370 307° West 302 348 16,400 -2,188 Descending FlightAware ADS-B
Tue 05:41:02 PM 44.9730 -75.0210 309° West 326 375 14,200 -2,333 Descending FlightAware ADS-B
Tue 05:41:42 PM 45.0110 -75.0880 309° West 326 375 12,900 -1,964 Descending FlightAware ADS-B
Tue 05:41:57 PM 45.0270 -75.1040 325° Northwest 330 380 12,400 -1,964 Descending FlightAware ADS-B
Tue 05:42:37 PM 45.0780 -75.1470 329° Northwest 324 373 11,100 -1,835 Descending FlightAware ADS-B
Tue 05:43:22 PM 45.1290 -75.1890 330° Northwest 314 361 9,800 -1,286 Descending FlightAware ADS-B
Tue 05:43:47 PM 45.1610 -75.2150 330° Northwest 287 330 9,600 -933 Descending FlightAware ADS-B
Tue 05:44:07 PM 45.1870 -75.2350 332° Northwest 282 325 9,100 -600 Descending FlightAware ADS-B
Tue 05:44:37 PM 45.2120 -75.2560 329° Northwest 282 325 9,100 -635 Level FlightAware ADS-B
Tue 05:45:32 PM 45.2690 -75.3000 331° Northwest 256 295 8,200 -635 Descending FlightAware ADS-B
Tue 05:46:02 PM 45.2960 -75.3210 331° Northwest 256 295 8,200  Level FlightAware ADS-B
Tue 05:46:32 PM 45.3220 -75.3410 332° Northwest 256 295 8,200  Level FlightAware ADS-B
Tue 05:47:02 PM 45.3490 -75.3620 331° Northwest 256 295 8,200 -3,195 Level FlightAware ADS-B
Tue 05:47:49 PM 45.3833 -75.4000 331° Northwest 210 242 4,100 -2,860 Descending Montreal Center
Tue 05:48:49 PM 45.3833 -75.4667 270° West 180 207 3,100 -900 Descending Montreal Center
Tue 05:49:49 PM 45.3667 -75.5167 245° Southwest 160 184 2,300 -800 Descending Montreal Center
Tue 05:50:49 PM 45.3333 -75.5833 235° Southwest 150 173 1,500 -850 Descending Montreal Center
Tue 05:51:49 PM 45.3167 -75.6333 245° Southwest 150 173 600 -600 Descending Montreal Center
Tue 05:52:49 PM 45.3000 -75.6833 245° Southwest 150 173 300 -300 Descending Montreal Center

Login

Don't have an account? Register now (free) for customized features, flight alerts, and more!